Time;durP1;ratioP1;P1;durP2;ratioP2;P2;SDS_P1;SDS_P2;PMS_P1;PMS_P2;Temp;Humidity;BMP_temperature;BMP_pressure;BME280_temperature;BME280_humidity;BME280_pressure;Samples;Min_cycle;Max_cycle;Signal;HPM_P1;HPM_P2
2023/07/13 00:02:26;;;;;;;4.78;2.05;;;15.60;99.90;;;;;;5019873;28;20052;-42
2023/07/13 00:04:52;;;;;;;7.00;2.10;;;15.50;99.90;;;;;;5021144;28;20052;-44
2023/07/13 00:07:19;;;;;;;5.63;2.45;;;15.50;99.90;;;;;;5023727;28;20050;-41
2023/07/13 00:09:46;;;;;;;10.23;2.50;;;15.50;99.90;;;;;;5019457;28;20053;-44
2023/07/13 00:12:30;;;;;;;6.65;2.63;;;15.50;99.90;;;;;;5020890;28;20049;-40
2023/07/13 00:15:05;;;;;;;7.70;2.42;;;15.50;99.90;;;;;;5018266;28;20049;-42
2023/07/13 00:17:30;;;;;;;5.68;1.88;;;15.60;99.90;;;;;;5020032;28;20558;-43
2023/07/13 00:19:56;;;;;;;7.25;2.47;;;15.60;99.90;;;;;;5037451;28;20042;-41
2023/07/13 00:22:25;;;;;;;10.15;2.75;;;15.60;99.90;;;;;;5022704;28;20167;-41
2023/07/13 00:24:52;;;;;;;7.05;2.40;;;15.60;99.90;;;;;;5020876;28;20041;-41
2023/07/13 00:27:18;;;;;;;9.63;2.67;;;15.60;99.90;;;;;;5020518;28;20740;-42
2023/07/13 00:29:44;;;;;;;10.45;2.47;;;15.60;99.90;;;;;;5019579;28;20132;-42
2023/07/13 00:32:11;;;;;;;7.72;2.35;;;15.50;99.90;;;;;;5019375;28;20040;-43
2023/07/13 00:34:37;;;;;;;7.13;2.47;;;15.50;99.90;;;;;;5018647;28;20034;-41
2023/07/13 00:37:06;;;;;;;5.53;2.28;;;15.50;99.90;;;;;;5017392;28;20062;-42
2023/07/13 00:39:32;;;;;;;9.48;3.22;;;15.50;99.90;;;;;;5018621;28;20128;-42
2023/07/13 00:41:58;;;;;;;10.07;2.67;;;15.50;99.90;;;;;;5017971;28;22397;-41
2023/07/13 00:44:24;;;;;;;9.10;2.55;;;15.40;99.90;;;;;;5023265;28;20042;-43
2023/07/13 00:46:50;;;;;;;8.32;2.92;;;15.40;99.90;;;;;;5024473;28;20047;-42
2023/07/13 00:49:21;;;;;;;7.03;2.22;;;15.40;99.90;;;;;;5029212;28;20041;-45
2023/07/13 00:51:50;;;;;;;6.07;2.28;;;15.40;99.90;;;;;;5028464;28;20029;-40
2023/07/13 00:54:22;;;;;;;8.75;2.42;;;15.40;99.90;;;;;;5029104;28;20065;-41
2023/07/13 00:56:53;;;;;;;8.93;2.40;;;15.40;99.90;;;;;;5026149;28;20107;-41
2023/07/13 00:59:21;;;;;;;13.15;2.80;;;15.40;99.90;;;;;;5028833;28;20077;-42
2023/07/13 01:01:48;;;;;;;8.43;2.60;;;15.50;99.90;;;;;;5028678;28;20041;-40
2023/07/13 01:04:14;;;;;;;8.17;2.43;;;15.50;99.90;;;;;;5028234;28;20053;-41
2023/07/13 01:06:41;;;;;;;7.55;2.47;;;15.50;99.90;;;;;;5027137;28;20048;-42
2023/07/13 01:09:08;;;;;;;10.85;2.40;;;15.60;99.90;;;;;;5028574;28;20041;-42
2023/07/13 01:11:34;;;;;;;8.57;2.28;;;15.60;99.90;;;;;;5027924;28;20396;-40
2023/07/13 01:14:01;;;;;;;9.85;2.58;;;15.60;99.90;;;;;;5024202;28;20045;-41
2023/07/13 01:16:31;;;;;;;6.70;2.50;;;15.60;99.90;;;;;;5018856;28;20045;-41
2023/07/13 01:18:58;;;;;;;10.02;2.88;;;15.60;99.90;;;;;;5022387;28;20068;-41
2023/07/13 01:21:25;;;;;;;10.45;2.67;;;15.60;99.90;;;;;;5021099;28;20052;-40
2023/07/13 01:23:51;;;;;;;8.50;2.90;;;15.70;99.90;;;;;;5019301;28;20071;-43
2023/07/13 01:26:16;;;;;;;8.70;2.78;;;15.70;99.90;;;;;;5020543;28;20116;-41
2023/07/13 01:28:43;;;;;;;7.00;2.25;;;15.70;99.90;;;;;;5018162;28;20476;-44
2023/07/13 01:31:09;;;;;;;9.80;2.38;;;15.70;99.90;;;;;;5023366;28;20095;-42
2023/07/13 01:33:39;;;;;;;8.88;2.53;;;15.70;99.90;;;;;;5019598;28;20037;-41
2023/07/13 01:36:09;;;;;;;8.18;2.53;;;15.70;99.90;;;;;;5017679;28;20091;-40
2023/07/13 01:38:36;;;;;;;9.98;2.63;;;15.70;99.90;;;;;;5019574;28;20140;-42
2023/07/13 01:41:03;;;;;;;7.00;2.40;;;15.70;99.90;;;;;;5019089;28;20546;-41
2023/07/13 01:43:29;;;;;;;8.82;2.60;;;15.70;99.90;;;;;;5019396;28;20135;-42
2023/07/13 01:45:54;;;;;;;7.78;2.30;;;15.70;99.90;;;;;;5020374;28;20041;-42
2023/07/13 01:48:20;;;;;;;9.95;3.10;;;15.80;99.90;;;;;;5017865;28;20169;-40
2023/07/13 01:50:47;;;;;;;10.55;2.63;;;15.80;99.90;;;;;;5016960;28;20049;-42
2023/07/13 01:53:13;;;;;;;7.90;2.87;;;15.70;99.90;;;;;;5018090;28;20086;-41
2023/07/13 01:55:38;;;;;;;10.00;2.60;;;15.80;99.90;;;;;;5018175;28;20045;-46
2023/07/13 01:58:05;;;;;;;10.95;3.33;;;15.80;99.90;;;;;;5020067;28;20484;-40
2023/07/13 02:00:31;;;;;;;9.55;2.80;;;15.80;99.90;;;;;;5018558;28;20037;-41
2023/07/13 02:02:57;;;;;;;12.98;2.75;;;15.80;99.90;;;;;;5016876;28;22550;-41
2023/07/13 02:05:22;;;;;;;8.77;2.60;;;15.80;99.90;;;;;;5015454;28;20046;-42
2023/07/13 02:07:49;;;;;;;8.38;2.47;;;15.80;99.90;;;;;;5016971;28;20056;-41
2023/07/13 02:10:15;;;;;;;9.00;2.45;;;15.80;99.90;;;;;;5016665;28;20280;-41
2023/07/13 02:12:42;;;;;;;8.35;2.47;;;15.80;99.90;;;;;;5017866;28;20038;-42
2023/07/13 02:15:08;;;;;;;7.60;2.50;;;15.80;99.90;;;;;;5017960;28;20037;-42
2023/07/13 02:17:34;;;;;;;9.70;2.70;;;15.80;99.90;;;;;;5019446;28;20123;-41
2023/07/13 02:20:00;;;;;;;9.38;2.55;;;15.70;99.90;;;;;;5019833;28;20555;-42
2023/07/13 02:22:26;;;;;;;8.80;2.50;;;15.80;99.90;;;;;;5021263;28;20033;-42
2023/07/13 02:24:52;;;;;;;8.20;2.80;;;15.70;99.90;;;;;;5017775;28;20137;-41
2023/07/13 02:27:18;;;;;;;9.65;2.78;;;15.80;99.90;;;;;;5017473;28;20049;-42
2023/07/13 02:29:44;;;;;;;9.85;3.08;;;15.80;99.90;;;;;;5018655;28;20458;-42
2023/07/13 02:32:10;;;;;;;8.65;2.80;;;15.80;99.90;;;;;;5017733;28;20056;-42
2023/07/13 02:34:35;;;;;;;8.05;2.97;;;15.70;99.90;;;;;;5022569;28;20129;-41
2023/07/13 02:37:01;;;;;;;10.23;2.92;;;15.70;99.90;;;;;;5020750;28;20606;-42
2023/07/13 02:39:27;;;;;;;10.65;3.08;;;15.70;99.90;;;;;;5021825;28;20400;-41
2023/07/13 02:41:53;;;;;;;11.30;2.97;;;15.70;99.90;;;;;;5023335;28;20122;-42
2023/07/13 02:44:19;;;;;;;7.82;2.72;;;15.70;99.90;;;;;;5026780;28;20087;-41
2023/07/13 02:46:44;;;;;;;11.02;3.13;;;15.70;99.90;;;;;;5028894;28;20037;-43
2023/07/13 02:49:10;;;;;;;9.77;2.80;;;15.70;99.90;;;;;;5027394;28;20087;-41
2023/07/13 02:51:36;;;;;;;10.18;2.85;;;15.70;99.90;;;;;;5029003;28;20041;-40
2023/07/13 02:54:03;;;;;;;8.45;2.85;;;15.60;99.90;;;;;;5030593;28;20034;-43
2023/07/13 02:56:30;;;;;;;7.35;2.67;;;15.70;99.90;;;;;;5031050;28;20503;-42
2023/07/13 02:58:57;;;;;;;9.23;2.60;;;15.70;99.90;;;;;;5024411;28;20050;-41
2023/07/13 03:01:24;;;;;;;11.57;3.22;;;15.60;99.90;;;;;;5027132;28;20056;-41
2023/07/13 03:03:50;;;;;;;10.02;3.05;;;15.60;99.90;;;;;;5030021;28;20124;-42
2023/07/13 03:06:17;;;;;;;10.07;3.13;;;15.60;99.90;;;;;;5030830;28;20503;-41
2023/07/13 03:08:43;;;;;;;8.98;3.22;;;15.60;99.90;;;;;;5027099;28;20053;-41
2023/07/13 03:11:12;;;;;;;10.65;3.50;;;15.60;99.90;;;;;;5028590;28;20043;-41
2023/07/13 03:13:41;;;;;;;10.68;3.15;;;15.60;99.90;;;;;;5027169;28;20033;-40
2023/07/13 03:16:08;;;;;;;11.90;3.17;;;15.60;99.90;;;;;;5022559;28;20049;-40
2023/07/13 03:18:36;;;;;;;9.13;3.10;;;15.60;99.90;;;;;;5020151;28;20091;-40
2023/07/13 03:21:02;;;;;;;10.05;3.22;;;15.60;99.90;;;;;;5021692;28;20129;-41
2023/07/13 03:23:27;;;;;;;6.03;2.85;;;15.60;99.90;;;;;;5023067;28;20133;-42
2023/07/13 03:26:04;;;;;;;7.82;2.97;;;15.50;99.90;;;;;;5023251;28;20041;-42
2023/07/13 03:28:29;;;;;;;7.65;2.78;;;15.50;99.90;;;;;;5022013;28;20070;-41
2023/07/13 03:31:17;;;;;;;11.93;2.95;;;15.60;99.90;;;;;;5021588;28;20399;-41
2023/07/13 03:33:43;;;;;;;7.95;3.03;;;15.50;99.90;;;;;;5021082;28;20054;-43
2023/07/13 03:36:18;;;;;;;8.30;3.03;;;15.50;99.90;;;;;;5019241;28;20483;-41
2023/07/13 03:38:46;;;;;;;9.60;2.85;;;15.50;99.90;;;;;;5018955;28;20049;-43
2023/07/13 03:41:12;;;;;;;9.00;3.22;;;15.40;99.90;;;;;;5020127;28;20138;-42
2023/07/13 03:43:37;;;;;;;9.38;2.83;;;15.40;99.90;;;;;;5019081;28;20546;-41
2023/07/13 03:46:03;;;;;;;8.40;2.60;;;15.40;99.90;;;;;;5018995;28;20152;-42
2023/07/13 03:48:29;;;;;;;8.77;2.88;;;15.40;99.90;;;;;;5021595;28;20132;-43
2023/07/13 03:50:54;;;;;;;7.93;2.75;;;15.30;99.90;;;;;;5021592;28;20250;-44
2023/07/13 03:53:20;;;;;;;9.27;3.10;;;15.30;99.90;;;;;;5024350;28;20052;-42
2023/07/13 03:55:46;;;;;;;8.25;3.13;;;15.30;99.90;;;;;;5024854;28;20484;-41
2023/07/13 03:58:33;;;;;;;9.60;3.33;;;15.30;99.90;;;;;;5026372;28;20038;-41
2023/07/13 04:00:59;;;;;;;7.68;3.10;;;15.30;99.90;;;;;;5023721;28;20411;-41
2023/07/13 04:03:27;;;;;;;9.90;3.28;;;15.30;99.90;;;;;;5025985;28;20095;-41
2023/07/13 04:05:54;;;;;;;11.05;3.30;;;15.30;99.90;;;;;;5024441;28;20099;-43
2023/07/13 04:08:20;;;;;;;12.82;3.30;;;15.30;99.90;;;;;;5024925;28;20040;-42
2023/07/13 04:10:46;;;;;;;7.90;3.20;;;15.30;99.90;;;;;;5023797;28;20230;-42
2023/07/13 04:13:11;;;;;;;8.35;3.10;;;15.40;99.90;;;;;;5024256;28;20049;-42
2023/07/13 04:15:39;;;;;;;7.47;3.10;;;15.40;99.90;;;;;;5025272;28;20076;-42
2023/07/13 04:18:04;;;;;;;10.18;3.13;;;15.30;99.90;;;;;;5020626;28;20045;-40
2023/07/13 04:20:30;;;;;;;8.35;3.13;;;15.40;99.90;;;;;;5022806;28;20045;-41
2023/07/13 04:22:57;;;;;;;10.13;3.28;;;15.40;99.90;;;;;;5025512;28;20037;-40
2023/07/13 04:25:23;;;;;;;11.50;3.22;;;15.40;99.90;;;;;;5026398;28;20041;-41
2023/07/13 04:27:49;;;;;;;9.43;3.47;;;15.40;99.90;;;;;;5023670;28;20585;-41
2023/07/13 04:30:15;;;;;;;10.23;3.85;;;15.40;99.90;;;;;;5019687;28;20095;-41
2023/07/13 04:32:41;;;;;;;9.00;3.60;;;15.40;99.90;;;;;;5022999;28;20037;-40
2023/07/13 04:35:07;;;;;;;9.38;2.85;;;15.50;99.90;;;;;;5054873;22;20049;-40
2023/07/13 04:37:32;;;;;;;8.23;3.28;;;15.60;99.90;;;;;;5044344;28;20079;-40
2023/07/13 04:39:58;;;;;;;8.68;3.00;;;15.60;99.90;;;;;;5048616;28;20092;-42
2023/07/13 04:42:24;;;;;;;10.57;3.17;;;16.50;99.90;;;;;;5049195;28;20037;-40
2023/07/13 04:44:51;;;;;;;7.10;2.80;;;16.60;99.90;;;;;;5045678;28;20037;-39
2023/07/13 04:47:17;;;;;;;10.63;3.80;;;16.50;99.90;;;;;;5048973;28;20037;-40
2023/07/13 04:49:43;;;;;;;9.70;3.10;;;17.10;99.90;;;;;;5049979;28;20479;-42
2023/07/13 04:52:09;;;;;;;9.90;3.08;;;18.50;99.90;;;;;;5047577;28;20055;-39
2023/07/13 04:54:35;;;;;;;8.13;2.70;;;;;;;;;;5049068;28;20120;-38
2023/07/13 04:57:01;;;;;;;10.20;3.50;;;19.00;99.90;;;;;;5047095;28;20123;-39
2023/07/13 04:59:26;;;;;;;7.30;2.60;;;19.60;99.90;;;;;;5047739;28;20116;-39
2023/07/13 05:01:53;;;;;;;10.95;3.03;;;20.20;99.90;;;;;;5049229;28;20049;-40
2023/07/13 05:04:19;;;;;;;9.57;2.97;;;20.60;99.90;;;;;;5047099;28;20132;-40
2023/07/13 05:06:44;;;;;;;9.70;2.53;;;21.10;99.90;;;;;;5047741;28;20124;-40
2023/07/13 05:09:10;;;;;;;6.88;2.50;;;21.60;99.90;;;;;;5048693;28;20048;-40
2023/07/13 05:11:36;;;;;;;7.75;2.30;;;22.20;99.90;;;;;;5050529;28;20040;-40
2023/07/13 05:14:01;;;;;;;8.25;2.53;;;22.20;99.90;;;;;;5049870;28;20051;-41
2023/07/13 05:16:27;;;;;;;8.50;2.75;;;22.50;99.90;;;;;;5047165;28;20037;-41
2023/07/13 05:18:53;;;;;;;6.47;2.60;;;22.80;99.90;;;;;;5050087;28;20479;-42
2023/07/13 05:21:19;;;;;;;6.35;2.85;;;22.90;99.90;;;;;;5044236;28;20537;-41
2023/07/13 05:23:45;;;;;;;8.50;2.75;;;23.30;99.90;;;;;;5044000;28;20048;-41
2023/07/13 05:26:11;;;;;;;10.05;2.92;;;23.50;99.90;;;;;;5044482;28;20064;-42
2023/07/13 05:28:37;;;;;;;7.32;2.70;;;23.90;99.90;;;;;;5044619;28;20402;-41
2023/07/13 05:31:04;;;;;;;8.30;2.97;;;24.00;99.90;;;;;;5044970;28;20048;-41
2023/07/13 05:33:29;;;;;;;9.88;2.65;;;24.50;99.90;;;;;;5043605;28;20029;-42
2023/07/13 05:35:56;;;;;;;6.70;3.03;;;24.60;99.90;;;;;;5045421;28;20041;-46
2023/07/13 05:38:22;;;;;;;6.75;2.55;;;24.90;99.90;;;;;;5044448;28;20045;-43
2023/07/13 05:40:48;;;;;;;7.07;2.58;;;;;;;;;;5043389;28;20048;-41
2023/07/13 05:43:14;;;;;;;7.22;2.30;;;25.30;99.90;;;;;;5044776;28;20044;-42
2023/07/13 05:45:40;;;;;;;7.03;2.40;;;25.60;99.90;;;;;;5044037;28;20068;-42
2023/07/13 05:48:06;;;;;;;8.75;2.83;;;25.60;99.90;;;;;;5043708;28;20048;-41
2023/07/13 05:50:32;;;;;;;11.98;2.75;;;25.90;99.90;;;;;;5043958;28;20376;-41
2023/07/13 05:52:58;;;;;;;11.27;2.45;;;26.10;99.90;;;;;;5044987;28;20067;-43
2023/07/13 05:55:23;;;;;;;12.27;2.67;;;26.00;99.90;;;;;;5044391;28;21999;-42
2023/07/13 05:57:49;;;;;;;8.93;3.05;;;26.40;99.90;;;;;;5044443;28;20644;-43
2023/07/13 06:00:15;;;;;;;9.77;2.30;;;26.60;99.90;;;;;;5042004;28;20029;-45
2023/07/13 06:02:42;;;;;;;8.10;2.28;;;26.50;99.90;;;;;;5044051;28;20394;-42
2023/07/13 06:05:08;;;;;;;8.50;2.58;;;26.60;99.90;;;;;;5044915;28;21564;-42
2023/07/13 06:07:33;;;;;;;9.82;2.45;;;26.90;99.90;;;;;;5047665;28;20128;-42
2023/07/13 06:09:59;;;;;;;9.15;2.47;;;;;;;;;;5048332;28;20124;-41
2023/07/13 06:12:26;;;;;;;12.10;2.47;;;26.80;99.90;;;;;;5047674;28;20483;-42
2023/07/13 06:14:52;;;;;;;7.77;1.90;;;26.80;99.90;;;;;;5046279;28;20055;-41
2023/07/13 06:17:17;;;;;;;12.40;2.95;;;26.70;99.90;;;;;;5048495;28;20045;-41
2023/07/13 06:19:43;;;;;;;9.52;2.47;;;26.70;99.90;;;;;;5049816;28;20032;-43
2023/07/13 06:22:09;;;;;;;6.63;2.25;;;26.90;99.90;;;;;;5047690;28;20479;-41
2023/07/13 06:24:35;;;;;;;7.47;2.78;;;27.20;99.90;;;;;;5048869;28;20086;-43
2023/07/13 06:27:00;;;;;;;5.53;2.35;;;27.30;99.90;;;;;;5048061;28;20128;-41
2023/07/13 06:29:26;;;;;;;8.13;2.28;;;27.40;99.90;;;;;;5047128;28;20044;-43
2023/07/13 06:31:52;;;;;;;6.68;2.22;;;27.60;99.90;;;;;;5047289;28;20092;-43
2023/07/13 06:34:18;;;;;;;7.80;2.47;;;27.70;99.90;;;;;;5048364;28;20049;-42
2023/07/13 06:36:44;;;;;;;8.38;2.75;;;27.70;99.90;;;;;;5049486;28;20041;-43
2023/07/13 06:39:10;;;;;;;3.92;2.25;;;27.70;99.90;;;;;;5047887;28;20056;-43
2023/07/13 06:41:35;;;;;;;6.72;2.45;;;27.90;99.90;;;;;;5048240;28;20045;-42
2023/07/13 06:44:01;;;;;;;7.75;2.65;;;27.90;99.90;;;;;;5045631;28;20124;-43
2023/07/13 06:46:29;;;;;;;8.25;2.45;;;28.00;99.40;;;;;;5067862;28;20040;-43
2023/07/13 06:48:55;;;;;;;8.50;2.50;;;28.00;99.90;;;;;;5062612;28;20399;-43
2023/07/13 06:51:21;;;;;;;6.93;2.42;;;28.20;99.90;;;;;;5076191;28;20048;-44
2023/07/13 06:53:46;;;;;;;10.52;2.65;;;28.30;98.90;;;;;;5075441;28;20041;-43
2023/07/13 06:56:12;;;;;;;8.55;2.63;;;28.10;99.70;;;;;;5076348;28;20037;-43
2023/07/13 06:58:38;;;;;;;8.57;2.47;;;27.60;99.90;;;;;;5076005;28;20052;-42
2023/07/13 07:01:05;;;;;;;9.48;2.33;;;27.20;99.90;;;;;;5060116;28;20048;-45
2023/07/13 07:03:30;;;;;;;8.80;2.28;;;26.60;99.90;;;;;;5055355;28;20168;-42
2023/07/13 07:06:15;;;;;;;8.48;2.40;;;26.40;99.90;;;;;;5054790;28;20124;-41
2023/07/13 07:08:41;;;;;;;8.50;2.92;;;26.60;99.90;;;;;;5056085;28;20056;-41
2023/07/13 07:11:13;;;;;;;9.32;2.72;;;27.00;99.90;;;;;;5056295;28;20044;-41
2023/07/13 07:13:39;;;;;;;8.85;2.80;;;27.00;99.90;;;;;;5053064;28;20041;-42
2023/07/13 07:16:04;;;;;;;8.60;3.00;;;27.70;99.90;;;;;;5045557;28;20056;-42
2023/07/13 07:18:30;;;;;;;8.40;2.80;;;28.10;99.90;;;;;;5046638;28;20208;-42
2023/07/13 07:20:56;;;;;;;13.45;2.83;;;28.00;99.90;;;;;;5046958;28;20040;-43
2023/07/13 07:23:22;;;;;;;9.45;2.53;;;26.90;99.90;;;;;;5044658;28;20102;-44
2023/07/13 07:25:47;;;;;;;9.43;2.67;;;26.00;99.90;;;;;;5049521;28;20044;-42
2023/07/13 07:28:17;;;;;;;7.63;2.70;;;25.40;99.90;;;;;;5047632;28;20041;-41
2023/07/13 07:30:44;;;;;;;9.15;2.72;;;24.50;99.90;;;;;;5047300;28;20230;-42
2023/07/13 07:33:10;;;;;;;6.13;2.50;;;;;;;;;;5048657;28;20043;-42
2023/07/13 07:35:36;;;;;;;11.57;2.95;;;23.90;99.90;;;;;;5046665;28;20061;-42
2023/07/13 07:38:02;;;;;;;8.18;2.80;;;23.20;99.90;;;;;;5046083;28;20411;-41
2023/07/13 07:40:28;;;;;;;7.03;2.88;;;23.10;99.90;;;;;;5043856;28;20051;-41
2023/07/13 07:42:53;;;;;;;8.65;2.80;;;22.80;99.90;;;;;;5046640;28;20048;-40
2023/07/13 07:45:20;;;;;;;8.07;3.00;;;22.60;99.90;;;;;;5047574;28;20037;-46
2023/07/13 07:47:46;;;;;;;5.95;2.72;;;22.30;99.90;;;;;;5045031;28;20496;-47
2023/07/13 07:50:12;;;;;;;6.40;3.10;;;22.20;99.90;;;;;;5044537;28;20040;-49
2023/07/13 07:52:38;;;;;;;11.00;3.65;;;22.20;99.90;;;;;;5046163;28;20032;-48
2023/07/13 07:55:07;;;;;;;12.68;3.90;;;22.20;99.90;;;;;;5046393;28;20048;-49
2023/07/13 07:57:34;;;;;;;9.50;3.35;;;22.10;99.90;;;;;;5045751;28;20045;-46
2023/07/13 07:59:59;;;;;;;9.17;3.27;;;22.10;99.90;;;;;;5046301;28;20434;-45
2023/07/13 08:02:25;;;;;;;8.60;3.25;;;22.00;99.90;;;;;;5049161;28;20060;-45
2023/07/13 08:04:52;;;;;;;11.18;3.33;;;22.00;99.90;;;;;;5046045;28;20083;-46
2023/07/13 08:07:18;;;;;;;8.97;3.43;;;22.00;99.90;;;;;;5042984;28;20052;-46
2023/07/13 08:09:44;;;;;;;10.52;3.53;;;22.00;99.90;;;;;;5045697;28;20045;-47
2023/07/13 08:12:10;;;;;;;11.32;3.17;;;22.10;99.90;;;;;;5044792;28;20395;-45
2023/07/13 08:17:08;;;;;;;7.50;3.53;;;22.30;99.90;;;;;;5080526;28;20062;-43
2023/07/13 08:19:34;;;;;;;10.32;3.97;;;22.40;99.90;;;;;;5084635;28;20036;-44
2023/07/13 08:22:00;;;;;;;10.45;3.95;;;22.40;99.90;;;;;;5078560;28;20547;-44
2023/07/13 08:24:26;;;;;;;7.05;3.63;;;22.30;99.90;;;;;;5083461;28;20063;-43
2023/07/13 08:26:52;;;;;;;8.23;3.28;;;22.40;99.90;;;;;;5076839;28;20040;-44
2023/07/13 08:29:18;;;;;;;10.48;3.88;;;22.50;99.90;;;;;;5085368;28;20051;-43
2023/07/13 08:31:44;;;;;;;8.80;3.75;;;22.60;99.90;;;;;;5080371;28;20036;-43
2023/07/13 08:34:10;;;;;;;11.55;4.20;;;22.70;99.90;;;;;;5060958;28;20051;-44
2023/07/13 08:36:37;;;;;;;8.02;4.20;;;22.80;99.90;;;;;;5055080;28;20040;-44
2023/07/13 08:39:02;;;;;;;11.75;4.07;;;22.70;99.90;;;;;;5081761;28;20490;-43
2023/07/13 08:41:29;;;;;;;8.43;4.00;;;22.80;99.90;;;;;;5060119;28;20051;-43
2023/07/13 08:43:59;;;;;;;8.68;3.85;;;23.00;99.90;;;;;;5069400;28;20130;-44
2023/07/13 08:46:27;;;;;;;10.18;3.92;;;23.00;99.90;;;;;;5077140;28;20513;-44
2023/07/13 08:48:59;;;;;;;7.97;4.20;;;23.10;99.90;;;;;;5072132;28;20386;-44
2023/07/13 08:51:28;;;;;;;7.15;4.22;;;23.10;99.90;;;;;;5082953;28;20436;-45
2023/07/13 08:54:05;;;;;;;9.82;3.88;;;23.10;99.90;;;;;;5077617;28;20125;-45
2023/07/13 08:56:32;;;;;;;9.05;3.72;;;23.20;99.90;;;;;;5080122;28;20055;-44
2023/07/13 08:59:06;;;;;;;;;;;23.40;99.90;;;;;;5078517;28;20457;-45
2023/07/13 09:02:02;;;;;;;8.05;3.63;;;23.80;99.90;;;;;;5080778;28;19919;-43
2023/07/13 09:05:00;;;;;;;9.15;3.80;;;24.00;99.90;;;;;;5087086;28;20406;-44
2023/07/13 09:07:41;;;;;;;9.23;3.80;;;23.80;99.90;;;;;;5078313;28;20126;-48
2023/07/13 09:10:33;;;;;;;7.97;3.65;;;24.50;99.90;;;;;;5076875;28;20075;-45
2023/07/13 09:13:20;;;;;;;7.43;3.42;;;24.20;99.90;;;;;;5072050;28;20130;-45
2023/07/13 09:15:49;;;;;;;7.35;3.65;;;24.00;99.90;;;;;;5077063;28;20139;-44
2023/07/13 09:18:28;;;;;;;8.90;3.42;;;23.90;99.90;;;;;;5076991;28;20040;-46
2023/07/13 09:21:16;;;;;;;9.90;4.28;;;23.90;99.90;;;;;;5078559;28;20113;-46
2023/07/13 09:23:43;;;;;;;7.60;3.70;;;23.60;99.90;;;;;;5075150;28;20050;-44
2023/07/13 09:26:19;;;;;;;9.40;3.50;;;23.10;99.90;;;;;;5080390;28;20474;-44
2023/07/13 09:28:48;;;;;;;5.40;2.08;;;22.70;99.90;;;;;;5084742;28;20040;-44
2023/07/13 09:31:22;;;;;;;9.68;1.92;;;20.60;99.90;;;;;;5066120;28;20060;-44
2023/07/13 09:33:48;;;;;;;8.23;2.10;;;19.10;99.90;;;;;;5084002;28;20371;-45
2023/07/13 09:36:34;;;;;;;4.38;1.40;;;19.00;99.90;;;;;;5084514;28;20398;-44
2023/07/13 09:39:32;;;;;;;4.35;1.70;;;18.60;99.90;;;;;;5087195;28;20390;-44
2023/07/13 09:42:07;;;;;;;4.80;1.90;;;18.00;99.90;;;;;;5064937;28;20067;-43
2023/07/13 09:44:38;;;;;;;4.65;1.30;;;17.70;99.90;;;;;;5079251;28;20690;-42
2023/07/13 09:47:38;;;;;;;3.05;1.50;;;17.50;99.90;;;;;;5082147;28;20059;-43
2023/07/13 09:50:18;;;;;;;8.10;1.45;;;17.40;99.90;;;;;;5079680;28;20047;-43
2023/07/13 09:52:47;;;;;;;1.70;1.33;;;17.40;99.90;;;;;;5079219;28;20431;-43
2023/07/13 09:55:37;;;;;;;2.33;1.27;;;17.50;99.90;;;;;;5076691;28;20051;-43
2023/07/13 09:58:16;;;;;;;3.33;1.23;;;17.60;99.90;;;;;;5063357;28;20131;-43
2023/07/13 10:00:53;;;;;;;1.50;1.40;;;18.00;99.90;;;;;;5074320;28;20063;-43
2023/07/13 10:03:26;;;;;;;3.43;1.33;;;18.30;99.90;;;;;;5073019;28;20544;-44
2023/07/13 10:05:53;;;;;;;1.80;1.02;;;18.50;99.90;;;;;;5075073;28;20412;-45
2023/07/13 10:08:25;;;;;;;1.87;1.20;;;18.60;99.90;;;;;;5080209;28;20151;-44
2023/07/13 10:11:02;;;;;;;0.90;0.90;;;;;;;;;;5082378;28;20508;-44
2023/07/13 10:14:02;;;;;;;2.90;1.30;;;18.90;99.90;;;;;;5073576;28;20044;-44
2023/07/13 10:16:33;;;;;;;2.15;1.60;;;19.10;99.90;;;;;;5074309;28;20053;-45
2023/07/13 10:19:20;;;;;;;3.97;1.67;;;19.60;99.90;;;;;;5073410;28;20501;-44
2023/07/13 10:21:56;;;;;;;2.28;1.50;;;20.20;99.90;;;;;;5074379;28;20502;-45
2023/07/13 10:24:33;;;;;;;2.90;2.00;;;20.70;99.90;;;;;;5076324;28;20388;-44
2023/07/13 10:27:07;;;;;;;5.47;2.40;;;21.10;99.90;;;;;;5078263;28;20044;-44
2023/07/13 10:29:51;;;;;;;5.38;2.60;;;21.40;99.90;;;;;;5078346;28;20044;-44
2023/07/13 10:32:20;;;;;;;4.63;2.80;;;21.50;99.90;;;;;;5081810;28;20048;-45
2023/07/13 10:34:50;;;;;;;4.32;2.67;;;21.60;99.90;;;;;;5077716;28;20410;-44
2023/07/13 10:37:21;;;;;;;4.43;2.50;;;21.80;99.90;;;;;;5059731;28;20045;-45
2023/07/13 10:39:48;;;;;;;7.22;3.22;;;21.90;99.90;;;;;;5085614;28;20074;-44
2023/07/13 10:42:22;;;;;;;5.43;3.35;;;22.10;99.90;;;;;;5078477;28;20039;-45
2023/07/13 10:44:48;;;;;;;4.45;3.20;;;;;;;;;;5080215;28;20490;-44
2023/07/13 10:47:17;;;;;;;5.30;2.90;;;22.00;99.90;;;;;;5079625;28;20051;-44
2023/07/13 10:49:44;;;;;;;6.57;3.80;;;21.90;99.90;;;;;;5082947;28;20036;-44
2023/07/13 10:52:56;;;;;;;6.18;3.75;;;21.70;99.90;;;;;;5074104;28;20401;-44
2023/07/13 10:55:31;;;;;;;7.95;3.95;;;21.60;99.90;;;;;;5074849;28;20066;-45
2023/07/13 10:58:01;;;;;;;7.13;3.92;;;21.40;99.90;;;;;;5085368;28;20032;-46
2023/07/13 11:00:30;;;;;;;6.47;3.95;;;21.20;99.90;;;;;;5084719;28;20044;-44
2023/07/13 11:03:03;;;;;;;5.25;3.58;;;21.10;99.90;;;;;;5087051;28;20054;-44
2023/07/13 11:05:33;;;;;;;6.50;4.30;;;21.00;99.90;;;;;;5084656;28;20135;-44
2023/07/13 11:08:32;;;;;;;6.18;3.83;;;20.90;99.90;;;;;;5084764;28;20048;-48
2023/07/13 11:10:58;;;;;;;6.28;4.00;;;20.80;99.90;;;;;;5082116;28;20036;-47
2023/07/13 11:13:38;;;;;;;4.20;2.60;;;20.50;99.90;;;;;;5056297;28;20059;-45
2023/07/13 11:16:36;;;;;;;3.03;2.03;;;20.10;99.90;;;;;;5078580;28;20052;-46
2023/07/13 11:19:02;;;;;;;4.53;3.40;;;19.60;99.90;;;;;;5060474;28;20214;-45
2023/07/13 11:21:30;;;;;;;5.35;2.42;;;19.40;99.90;;;;;;5075710;28;20048;-45
2023/07/13 11:24:02;;;;;;;3.35;1.70;;;19.40;99.90;;;;;;5077794;28;20139;-44
2023/07/13 11:26:46;;;;;;;1.40;1.10;;;19.40;99.90;;;;;;5078701;28;20044;-45
2023/07/13 11:29:15;;;;;;;2.25;1.38;;;19.40;99.90;;;;;;5074695;28;20044;-45
2023/07/13 11:31:43;;;;;;;2.08;1.50;;;19.40;99.90;;;;;;5079075;28;20047;-44
2023/07/13 11:34:17;;;;;;;4.18;1.58;;;19.50;99.90;;;;;;5080267;28;20358;-44
2023/07/13 11:36:44;;;;;;;2.22;1.50;;;19.70;99.90;;;;;;5079380;28;20043;-45
2023/07/13 11:39:21;;;;;;;1.67;1.33;;;19.80;99.90;;;;;;5078326;28;20048;-45
2023/07/13 11:42:01;;;;;;;3.25;1.58;;;20.10;99.90;;;;;;5079637;28;20060;-45
2023/07/13 11:44:29;;;;;;;3.22;1.70;;;20.60;99.90;;;;;;5079693;28;20036;-46
2023/07/13 11:47:00;;;;;;;4.07;1.77;;;21.00;99.90;;;;;;5074839;28;20105;-43
2023/07/13 11:49:29;;;;;;;2.70;1.92;;;21.50;99.90;;;;;;5075151;28;20079;-45
2023/07/13 11:51:56;;;;;;;2.50;1.73;;;22.10;99.90;;;;;;5075418;28;20051;-45
2023/07/13 11:54:22;;;;;;;;;;;22.10;99.90;;;;;;5079838;28;20043;-44
2023/07/13 11:56:49;;;;;;;3.92;2.30;;;22.10;99.90;;;;;;5078904;28;19920;-45
2023/07/13 11:59:16;;;;;;;3.70;2.55;;;22.00;99.90;;;;;;5080682;28;20078;-46
2023/07/13 12:01:50;;;;;;;4.82;2.53;;;21.90;99.90;;;;;;5073079;28;20120;-44
2023/07/13 12:04:31;;;;;;;4.75;2.53;;;21.90;99.90;;;;;;5078078;28;20044;-45
2023/07/13 12:07:14;;;;;;;3.47;2.50;;;21.80;99.90;;;;;;5077521;28;20148;-44
2023/07/13 12:09:41;;;;;;;3.42;2.50;;;22.00;99.90;;;;;;5075673;28;20056;-45
2023/07/13 12:12:17;;;;;;;3.50;2.75;;;22.10;99.90;;;;;;5077411;28;20063;-44
2023/07/13 12:14:43;;;;;;;5.85;2.58;;;21.90;99.90;;;;;;5075986;28;20058;-47
2023/07/13 12:17:18;;;;;;;4.57;2.50;;;21.60;99.90;;;;;;5075130;28;20044;-44
2023/07/13 12:19:46;;;;;;;5.40;2.63;;;21.60;99.90;;;;;;5079240;28;21689;-44
2023/07/13 12:22:13;;;;;;;;;;;21.60;99.90;;;;;;5078713;28;20052;-44
2023/07/13 12:24:40;;;;;;;6.10;2.88;;;21.50;99.90;;;;;;5077423;28;19985;-44
2023/07/13 12:27:06;;;;;;;5.38;2.95;;;21.70;99.90;;;;;;5077944;28;20458;-44
2023/07/13 12:29:33;;;;;;;5.85;3.13;;;21.80;99.90;;;;;;5085601;28;20059;-45
2023/07/13 12:31:59;;;;;;;5.32;2.83;;;21.70;99.90;;;;;;5085616;28;20043;-46
2023/07/13 12:34:26;;;;;;;6.68;2.85;;;21.60;99.90;;;;;;5068222;28;20182;-44
2023/07/13 12:36:52;;;;;;;6.05;3.13;;;21.60;99.90;;;;;;5062805;28;20116;-45
2023/07/13 12:39:23;;;;;;;5.45;2.80;;;22.00;99.90;;;;;;5083784;28;20425;-46
2023/07/13 12:41:51;;;;;;;7.60;3.15;;;22.10;99.90;;;;;;5065582;28;20044;-45
2023/07/13 12:44:29;;;;;;;4.93;3.20;;;22.60;99.90;;;;;;5087837;28;20047;-44
2023/07/13 12:47:15;;;;;;;7.07;3.33;;;22.90;99.90;;;;;;5082713;28;20478;-45
2023/07/13 12:49:55;;;;;;;5.40;3.30;;;23.00;99.90;;;;;;5093303;28;20085;-44
2023/07/13 12:52:24;;;;;;;7.90;3.30;;;23.20;99.90;;;;;;5080085;28;20448;-44
2023/07/13 12:55:20;;;;;;;5.65;3.33;;;22.80;99.90;;;;;;5075446;28;20135;-46
2023/07/13 12:57:48;;;;;;;7.18;3.20;;;22.90;99.90;;;;;;5054123;28;20071;-45
2023/07/13 13:00:28;;;;;;;5.38;2.72;;;23.00;99.90;;;;;;5073482;28;20433;-46
2023/07/13 13:02:57;;;;;;;4.93;2.92;;;23.70;99.90;;;;;;5076512;28;20055;-43